首页
METAR-TAF:

METAR-TAF

机场 :

Mount Pleasant Municipal Airport

Mount Pleasant, 密歇根州, 美国

纬度: 43-37N, 经度: 084-44W, 海拔: 230米

当前天气观测

该预报发布于16分钟前的09:35 UTC
风速4节,风向南转南东
温度 -8°C
湿度 85%
气压 1033 hPa
能見度: 16.1公里
散云层高于8000英尺
多云层高于10000英尺

METAR: KMOP 120935Z AUTO 16004KT 10SM SCT080 BKN100 M08/M10 A3049 RMK AO2 T10811105

时间: 04:51 (09:51 UTC)


TAF: 丢失

超过4000个机场的气象观测和天气预报(METAR&TAF报告)。

可查询的气象台以黄色和红色小点在地图上表示。

将鼠标移到小点上方,可查看气象台名称。

然后点击查看天气观测和预报。

如需切换地图:点击带黑十字的绿色按钮放大地图;点击带横线的绿色按钮缩小地图;或者点击绿色箭头查看邻近地区的地图。


METAR-TAF: